sensor_id;sensor_type;location;lat;lon;timestamp;P1;durP1;ratioP1;P2;durP2;ratioP2
15082;SDS011;7640;53.116;6.878;2022-10-16T00:02:03;6.17;;;2.60;;
15082;SDS011;7640;53.116;6.878;2022-10-16T00:04:36;9.07;;;2.90;;
15082;SDS011;7640;53.116;6.878;2022-10-16T00:07:12;7.50;;;3.57;;
15082;SDS011;7640;53.116;6.878;2022-10-16T00:09:52;6.77;;;3.13;;
15082;SDS011;7640;53.116;6.878;2022-10-16T00:12:52;7.63;;;3.03;;
15082;SDS011;7640;53.116;6.878;2022-10-16T00:15:26;6.03;;;3.00;;
15082;SDS011;7640;53.116;6.878;2022-10-16T00:18:00;5.13;;;3.30;;
15082;SDS011;7640;53.116;6.878;2022-10-16T00:20:33;7.43;;;3.10;;
15082;SDS011;7640;53.116;6.878;2022-10-16T00:23:15;7.03;;;2.90;;
15082;SDS011;7640;53.116;6.878;2022-10-16T00:29:19;6.70;;;2.60;;
15082;SDS011;7640;53.116;6.878;2022-10-16T00:32:00;5.23;;;3.00;;
15082;SDS011;7640;53.116;6.878;2022-10-16T00:35:08;7.17;;;2.70;;
15082;SDS011;7640;53.116;6.878;2022-10-16T00:37:55;6.70;;;2.90;;
15082;SDS011;7640;53.116;6.878;2022-10-16T00:40:41;5.90;;;3.10;;
15082;SDS011;7640;53.116;6.878;2022-10-16T00:43:37;10.17;;;2.90;;
15082;SDS011;7640;53.116;6.878;2022-10-16T00:46:19;6.97;;;2.80;;
15082;SDS011;7640;53.116;6.878;2022-10-16T00:48:55;6.07;;;2.80;;
15082;SDS011;7640;53.116;6.878;2022-10-16T00:51:48;6.67;;;2.90;;
15082;SDS011;7640;53.116;6.878;2022-10-16T00:54:31;7.47;;;2.87;;
15082;SDS011;7640;53.116;6.878;2022-10-16T00:57:10;7.67;;;2.97;;
15082;SDS011;7640;53.116;6.878;2022-10-16T00:59:42;8.70;;;3.03;;
15082;SDS011;7640;53.116;6.878;2022-10-16T01:02:33;7.13;;;3.10;;
15082;SDS011;7640;53.116;6.878;2022-10-16T01:05:20;9.43;;;2.90;;
15082;SDS011;7640;53.116;6.878;2022-10-16T01:08:04;7.77;;;2.80;;
15082;SDS011;7640;53.116;6.878;2022-10-16T01:10:48;5.93;;;2.80;;
15082;SDS011;7640;53.116;6.878;2022-10-16T01:13:32;6.70;;;2.60;;
15082;SDS011;7640;53.116;6.878;2022-10-16T01:16:38;7.10;;;2.90;;
15082;SDS011;7640;53.116;6.878;2022-10-16T01:19:44;9.10;;;3.17;;
15082;SDS011;7640;53.116;6.878;2022-10-16T01:23:15;7.07;;;2.90;;
15082;SDS011;7640;53.116;6.878;2022-10-16T01:26:32;7.87;;;3.10;;
15082;SDS011;7640;53.116;6.878;2022-10-16T01:32:49;3.83;;;3.07;;
15082;SDS011;7640;53.116;6.878;2022-10-16T01:35:36;5.23;;;3.00;;
15082;SDS011;7640;53.116;6.878;2022-10-16T01:38:17;4.73;;;2.93;;
15082;SDS011;7640;53.116;6.878;2022-10-16T01:41:01;7.07;;;2.63;;
15082;SDS011;7640;53.116;6.878;2022-10-16T01:44:07;5.67;;;2.60;;
15082;SDS011;7640;53.116;6.878;2022-10-16T01:46:59;3.67;;;2.63;;
15082;SDS011;7640;53.116;6.878;2022-10-16T01:50:19;4.60;;;2.77;;
15082;SDS011;7640;53.116;6.878;2022-10-16T01:53:15;5.60;;;2.70;;
15082;SDS011;7640;53.116;6.878;2022-10-16T01:56:10;7.73;;;2.77;;
15082;SDS011;7640;53.116;6.878;2022-10-16T01:58:49;5.63;;;2.70;;
15082;SDS011;7640;53.116;6.878;2022-10-16T02:01:39;5.50;;;3.07;;
15082;SDS011;7640;53.116;6.878;2022-10-16T02:04:39;7.03;;;3.20;;
15082;SDS011;7640;53.116;6.878;2022-10-16T02:07:15;7.17;;;3.37;;
15082;SDS011;7640;53.116;6.878;2022-10-16T02:09:47;3.47;;;2.50;;
15082;SDS011;7640;53.116;6.878;2022-10-16T02:15:23;5.57;;;2.70;;
15082;SDS011;7640;53.116;6.878;2022-10-16T02:18:00;5.60;;;2.77;;
15082;SDS011;7640;53.116;6.878;2022-10-16T02:20:43;5.07;;;3.60;;
15082;SDS011;7640;53.116;6.878;2022-10-16T02:23:23;7.33;;;3.13;;
15082;SDS011;7640;53.116;6.878;2022-10-16T02:26:30;6.73;;;2.67;;
15082;SDS011;7640;53.116;6.878;2022-10-16T02:29:10;5.73;;;2.77;;
15082;SDS011;7640;53.116;6.878;2022-10-16T02:31:48;8.00;;;3.90;;
15082;SDS011;7640;53.116;6.878;2022-10-16T02:37:55;7.20;;;3.17;;
15082;SDS011;7640;53.116;6.878;2022-10-16T02:40:34;4.43;;;3.27;;
15082;SDS011;7640;53.116;6.878;2022-10-16T02:43:13;8.70;;;3.60;;
15082;SDS011;7640;53.116;6.878;2022-10-16T02:45:46;6.53;;;3.60;;
15082;SDS011;7640;53.116;6.878;2022-10-16T02:48:20;10.80;;;3.73;;
15082;SDS011;7640;53.116;6.878;2022-10-16T02:50:57;3.67;;;3.17;;
15082;SDS011;7640;53.116;6.878;2022-10-16T02:56:46;8.57;;;3.63;;
15082;SDS011;7640;53.116;6.878;2022-10-16T02:59:25;6.90;;;3.13;;
15082;SDS011;7640;53.116;6.878;2022-10-16T03:01:56;7.23;;;3.40;;
15082;SDS011;7640;53.116;6.878;2022-10-16T03:04:40;4.00;;;3.10;;
15082;SDS011;7640;53.116;6.878;2022-10-16T03:07:12;5.93;;;3.23;;
15082;SDS011;7640;53.116;6.878;2022-10-16T03:10:03;5.23;;;3.43;;
15082;SDS011;7640;53.116;6.878;2022-10-16T03:12:41;4.87;;;3.30;;
15082;SDS011;7640;53.116;6.878;2022-10-16T03:15:37;4.40;;;3.20;;
15082;SDS011;7640;53.116;6.878;2022-10-16T03:18:21;4.03;;;3.13;;
15082;SDS011;7640;53.116;6.878;2022-10-16T03:21:08;5.93;;;2.90;;
15082;SDS011;7640;53.116;6.878;2022-10-16T03:24:00;5.77;;;3.10;;
15082;SDS011;7640;53.116;6.878;2022-10-16T03:26:37;5.13;;;2.90;;
15082;SDS011;7640;53.116;6.878;2022-10-16T03:29:11;6.20;;;3.40;;
15082;SDS011;7640;53.116;6.878;2022-10-16T03:32:03;3.93;;;3.27;;
15082;SDS011;7640;53.116;6.878;2022-10-16T03:34:38;4.20;;;2.90;;
15082;SDS011;7640;53.116;6.878;2022-10-16T03:37:24;4.43;;;2.73;;
15082;SDS011;7640;53.116;6.878;2022-10-16T03:40:16;5.23;;;2.70;;
15082;SDS011;7640;53.116;6.878;2022-10-16T03:43:12;7.30;;;3.40;;
15082;SDS011;7640;53.116;6.878;2022-10-16T03:45:43;4.63;;;3.00;;
15082;SDS011;7640;53.116;6.878;2022-10-16T03:48:23;6.83;;;2.83;;
15082;SDS011;7640;53.116;6.878;2022-10-16T03:50:56;4.27;;;2.73;;
15082;SDS011;7640;53.116;6.878;2022-10-16T03:53:29;5.47;;;2.87;;
15082;SDS011;7640;53.116;6.878;2022-10-16T03:56:15;4.40;;;3.00;;
15082;SDS011;7640;53.116;6.878;2022-10-16T03:59:06;4.27;;;2.83;;
15082;SDS011;7640;53.116;6.878;2022-10-16T04:01:45;3.70;;;2.80;;
15082;SDS011;7640;53.116;6.878;2022-10-16T04:04:32;3.60;;;2.90;;
15082;SDS011;7640;53.116;6.878;2022-10-16T04:07:07;4.57;;;2.83;;
15082;SDS011;7640;53.116;6.878;2022-10-16T04:09:47;5.13;;;2.70;;
15082;SDS011;7640;53.116;6.878;2022-10-16T04:18:08;4.67;;;2.80;;
15082;SDS011;7640;53.116;6.878;2022-10-16T04:20:52;6.93;;;3.00;;
15082;SDS011;7640;53.116;6.878;2022-10-16T04:23:36;4.17;;;2.93;;
15082;SDS011;7640;53.116;6.878;2022-10-16T04:26:08;3.10;;;2.80;;
15082;SDS011;7640;53.116;6.878;2022-10-16T04:28:52;7.30;;;3.30;;
15082;SDS011;7640;53.116;6.878;2022-10-16T04:31:41;5.20;;;3.23;;
15082;SDS011;7640;53.116;6.878;2022-10-16T04:34:13;5.27;;;2.90;;
15082;SDS011;7640;53.116;6.878;2022-10-16T04:36:51;7.03;;;3.10;;
15082;SDS011;7640;53.116;6.878;2022-10-16T04:39:39;5.77;;;3.20;;
15082;SDS011;7640;53.116;6.878;2022-10-16T04:42:19;5.90;;;2.83;;
15082;SDS011;7640;53.116;6.878;2022-10-16T04:44:53;7.83;;;3.17;;
15082;SDS011;7640;53.116;6.878;2022-10-16T04:47:39;3.73;;;2.77;;
15082;SDS011;7640;53.116;6.878;2022-10-16T04:50:12;6.13;;;3.07;;
15082;SDS011;7640;53.116;6.878;2022-10-16T04:52:47;4.47;;;3.07;;
15082;SDS011;7640;53.116;6.878;2022-10-16T04:55:32;4.23;;;3.10;;
15082;SDS011;7640;53.116;6.878;2022-10-16T04:58:20;4.63;;;3.57;;
15082;SDS011;7640;53.116;6.878;2022-10-16T05:01:05;5.13;;;3.23;;
15082;SDS011;7640;53.116;6.878;2022-10-16T05:03:45;4.23;;;3.40;;
15082;SDS011;7640;53.116;6.878;2022-10-16T05:06:30;6.20;;;3.20;;
15082;SDS011;7640;53.116;6.878;2022-10-16T05:09:19;5.63;;;3.23;;
15082;SDS011;7640;53.116;6.878;2022-10-16T05:11:56;6.53;;;3.40;;
15082;SDS011;7640;53.116;6.878;2022-10-16T05:14:32;3.50;;;2.87;;
15082;SDS011;7640;53.116;6.878;2022-10-16T05:17:06;5.07;;;3.07;;
15082;SDS011;7640;53.116;6.878;2022-10-16T05:19:45;5.47;;;3.13;;
15082;SDS011;7640;53.116;6.878;2022-10-16T05:22:20;5.33;;;3.20;;
15082;SDS011;7640;53.116;6.878;2022-10-16T05:24:59;3.23;;;2.83;;
15082;SDS011;7640;53.116;6.878;2022-10-16T05:28:13;5.27;;;3.17;;
15082;SDS011;7640;53.116;6.878;2022-10-16T05:31:04;5.30;;;3.17;;
15082;SDS011;7640;53.116;6.878;2022-10-16T05:33:46;4.17;;;2.80;;
15082;SDS011;7640;53.116;6.878;2022-10-16T05:36:50;5.37;;;3.20;;
15082;SDS011;7640;53.116;6.878;2022-10-16T05:39:42;4.03;;;3.30;;
15082;SDS011;7640;53.116;6.878;2022-10-16T05:42:22;5.90;;;3.67;;
15082;SDS011;7640;53.116;6.878;2022-10-16T05:44:59;5.57;;;3.27;;
15082;SDS011;7640;53.116;6.878;2022-10-16T05:47:38;4.87;;;3.50;;
15082;SDS011;7640;53.116;6.878;2022-10-16T05:50:25;5.30;;;3.50;;
15082;SDS011;7640;53.116;6.878;2022-10-16T05:53:39;3.70;;;3.20;;
15082;SDS011;7640;53.116;6.878;2022-10-16T05:56:18;5.17;;;3.50;;
15082;SDS011;7640;53.116;6.878;2022-10-16T05:58:49;5.83;;;3.37;;
15082;SDS011;7640;53.116;6.878;2022-10-16T06:01:29;7.50;;;3.70;;
15082;SDS011;7640;53.116;6.878;2022-10-16T06:04:19;10.07;;;3.93;;
15082;SDS011;7640;53.116;6.878;2022-10-16T06:06:50;3.67;;;3.37;;
15082;SDS011;7640;53.116;6.878;2022-10-16T06:09:31;5.83;;;3.77;;
15082;SDS011;7640;53.116;6.878;2022-10-16T06:12:18;7.37;;;4.53;;
15082;SDS011;7640;53.116;6.878;2022-10-16T06:14:57;5.93;;;4.00;;
15082;SDS011;7640;53.116;6.878;2022-10-16T06:17:38;7.87;;;4.00;;
15082;SDS011;7640;53.116;6.878;2022-10-16T06:20:25;5.80;;;3.80;;
15082;SDS011;7640;53.116;6.878;2022-10-16T06:23:17;5.07;;;3.70;;
15082;SDS011;7640;53.116;6.878;2022-10-16T06:25:51;6.50;;;4.33;;
15082;SDS011;7640;53.116;6.878;2022-10-16T06:28:39;5.27;;;3.93;;
15082;SDS011;7640;53.116;6.878;2022-10-16T06:31:16;7.13;;;3.93;;
15082;SDS011;7640;53.116;6.878;2022-10-16T06:34:02;5.60;;;4.10;;
15082;SDS011;7640;53.116;6.878;2022-10-16T06:36:37;4.73;;;3.93;;
15082;SDS011;7640;53.116;6.878;2022-10-16T06:39:11;6.17;;;3.60;;
15082;SDS011;7640;53.116;6.878;2022-10-16T06:41:43;6.60;;;3.93;;
15082;SDS011;7640;53.116;6.878;2022-10-16T06:44:22;8.43;;;3.93;;
15082;SDS011;7640;53.116;6.878;2022-10-16T06:47:11;7.33;;;3.93;;
15082;SDS011;7640;53.116;6.878;2022-10-16T06:49:55;6.20;;;3.83;;
15082;SDS011;7640;53.116;6.878;2022-10-16T06:52:49;5.90;;;3.77;;
15082;SDS011;7640;53.116;6.878;2022-10-16T06:55:32;5.13;;;3.67;;
15082;SDS011;7640;53.116;6.878;2022-10-16T06:58:07;6.03;;;3.50;;
15082;SDS011;7640;53.116;6.878;2022-10-16T07:00:55;5.30;;;3.37;;
15082;SDS011;7640;53.116;6.878;2022-10-16T07:03:26;3.80;;;3.30;;
15082;SDS011;7640;53.116;6.878;2022-10-16T07:06:39;3.30;;;3.00;;
15082;SDS011;7640;53.116;6.878;2022-10-16T07:09:33;8.90;;;3.63;;
15082;SDS011;7640;53.116;6.878;2022-10-16T07:12:18;4.13;;;2.93;;
15082;SDS011;7640;53.116;6.878;2022-10-16T07:17:58;6.93;;;3.30;;
15082;SDS011;7640;53.116;6.878;2022-10-16T07:20:33;4.87;;;2.90;;
15082;SDS011;7640;53.116;6.878;2022-10-16T07:23:19;5.30;;;3.10;;
15082;SDS011;7640;53.116;6.878;2022-10-16T07:25:55;5.07;;;2.70;;
15082;SDS011;7640;53.116;6.878;2022-10-16T07:28:46;5.23;;;3.23;;
15082;SDS011;7640;53.116;6.878;2022-10-16T07:31:23;3.37;;;3.07;;
15082;SDS011;7640;53.116;6.878;2022-10-16T07:34:11;5.23;;;3.47;;
15082;SDS011;7640;53.116;6.878;2022-10-16T07:37:00;5.97;;;3.17;;
15082;SDS011;7640;53.116;6.878;2022-10-16T07:39:46;7.80;;;3.00;;
15082;SDS011;7640;53.116;6.878;2022-10-16T07:42:26;4.13;;;2.80;;
15082;SDS011;7640;53.116;6.878;2022-10-16T07:45:47;5.20;;;2.77;;
15082;SDS011;7640;53.116;6.878;2022-10-16T07:48:31;4.27;;;2.73;;
15082;SDS011;7640;53.116;6.878;2022-10-16T07:51:22;8.07;;;2.70;;
15082;SDS011;7640;53.116;6.878;2022-10-16T07:59:47;3.57;;;2.43;;
15082;SDS011;7640;53.116;6.878;2022-10-16T08:02:23;4.23;;;2.50;;
15082;SDS011;7640;53.116;6.878;2022-10-16T08:08:11;5.20;;;2.57;;
15082;SDS011;7640;53.116;6.878;2022-10-16T08:10:53;4.33;;;2.30;;
15082;SDS011;7640;53.116;6.878;2022-10-16T08:13:35;3.83;;;3.10;;
15082;SDS011;7640;53.116;6.878;2022-10-16T08:16:27;5.57;;;2.53;;
15082;SDS011;7640;53.116;6.878;2022-10-16T08:18:59;4.60;;;2.50;;
15082;SDS011;7640;53.116;6.878;2022-10-16T08:21:59;4.37;;;2.40;;
15082;SDS011;7640;53.116;6.878;2022-10-16T08:24:39;5.77;;;2.73;;
15082;SDS011;7640;53.116;6.878;2022-10-16T08:27:22;5.30;;;2.50;;
15082;SDS011;7640;53.116;6.878;2022-10-16T08:30:21;5.77;;;2.30;;
15082;SDS011;7640;53.116;6.878;2022-10-16T08:33:13;3.73;;;2.47;;
15082;SDS011;7640;53.116;6.878;2022-10-16T08:35:54;5.10;;;2.17;;
15082;SDS011;7640;53.116;6.878;2022-10-16T08:38:31;5.13;;;2.30;;
15082;SDS011;7640;53.116;6.878;2022-10-16T08:41:19;4.43;;;1.93;;
15082;SDS011;7640;53.116;6.878;2022-10-16T08:47:35;3.67;;;2.10;;
15082;SDS011;7640;53.116;6.878;2022-10-16T08:50:25;5.43;;;1.90;;
15082;SDS011;7640;53.116;6.878;2022-10-16T08:53:01;3.90;;;2.10;;
15082;SDS011;7640;53.116;6.878;2022-10-16T08:58:29;3.17;;;1.60;;
15082;SDS011;7640;53.116;6.878;2022-10-16T09:01:02;4.77;;;2.00;;
15082;SDS011;7640;53.116;6.878;2022-10-16T09:03:44;6.10;;;2.10;;
15082;SDS011;7640;53.116;6.878;2022-10-16T09:07:06;3.57;;;1.50;;
15082;SDS011;7640;53.116;6.878;2022-10-16T09:09:52;5.77;;;1.63;;
15082;SDS011;7640;53.116;6.878;2022-10-16T09:12:35;4.40;;;1.90;;
15082;SDS011;7640;53.116;6.878;2022-10-16T09:15:18;3.70;;;1.63;;
15082;SDS011;7640;53.116;6.878;2022-10-16T09:21:01;4.60;;;1.80;;
15082;SDS011;7640;53.116;6.878;2022-10-16T09:23:45;3.50;;;1.90;;
15082;SDS011;7640;53.116;6.878;2022-10-16T09:26:23;4.47;;;2.00;;
15082;SDS011;7640;53.116;6.878;2022-10-16T09:29:08;3.47;;;1.90;;
15082;SDS011;7640;53.116;6.878;2022-10-16T09:31:45;3.90;;;1.67;;
15082;SDS011;7640;53.116;6.878;2022-10-16T09:37:17;6.53;;;1.90;;
15082;SDS011;7640;53.116;6.878;2022-10-16T09:39:49;4.57;;;1.70;;
15082;SDS011;7640;53.116;6.878;2022-10-16T09:42:34;5.63;;;2.07;;
15082;SDS011;7640;53.116;6.878;2022-10-16T09:47:52;5.93;;;1.97;;
15082;SDS011;7640;53.116;6.878;2022-10-16T09:50:29;3.87;;;2.00;;
15082;SDS011;7640;53.116;6.878;2022-10-16T09:56:11;4.87;;;2.00;;
15082;SDS011;7640;53.116;6.878;2022-10-16T09:58:56;4.57;;;1.60;;
15082;SDS011;7640;53.116;6.878;2022-10-16T10:04:37;6.00;;;1.80;;
15082;SDS011;7640;53.116;6.878;2022-10-16T10:07:17;8.07;;;2.03;;
15082;SDS011;7640;53.116;6.878;2022-10-16T10:09:56;10.10;;;2.00;;
15082;SDS011;7640;53.116;6.878;2022-10-16T10:12:27;6.23;;;1.63;;
15082;SDS011;7640;53.116;6.878;2022-10-16T10:15:04;7.20;;;2.10;;
15082;SDS011;7640;53.116;6.878;2022-10-16T10:17:46;6.70;;;2.37;;
15082;SDS011;7640;53.116;6.878;2022-10-16T10:20:24;10.17;;;2.63;;
15082;SDS011;7640;53.116;6.878;2022-10-16T10:22:55;9.00;;;2.27;;
15082;SDS011;7640;53.116;6.878;2022-10-16T10:25:34;7.57;;;1.80;;
15082;SDS011;7640;53.116;6.878;2022-10-16T10:28:26;6.43;;;2.00;;
15082;SDS011;7640;53.116;6.878;2022-10-16T10:31:17;5.17;;;2.00;;
15082;SDS011;7640;53.116;6.878;2022-10-16T10:33:54;7.50;;;2.20;;
15082;SDS011;7640;53.116;6.878;2022-10-16T10:37:20;8.23;;;2.33;;
15082;SDS011;7640;53.116;6.878;2022-10-16T10:40:03;6.10;;;2.13;;
15082;SDS011;7640;53.116;6.878;2022-10-16T10:42:56;10.03;;;2.20;;
15082;SDS011;7640;53.116;6.878;2022-10-16T10:45:41;5.40;;;2.00;;
15082;SDS011;7640;53.116;6.878;2022-10-16T10:51:20;9.53;;;2.27;;
15082;SDS011;7640;53.116;6.878;2022-10-16T10:53:59;7.97;;;2.03;;
15082;SDS011;7640;53.116;6.878;2022-10-16T10:56:40;7.73;;;2.00;;
15082;SDS011;7640;53.116;6.878;2022-10-16T10:59:28;9.20;;;2.80;;
15082;SDS011;7640;53.116;6.878;2022-10-16T11:02:23;9.07;;;2.50;;
15082;SDS011;7640;53.116;6.878;2022-10-16T11:05:12;9.63;;;2.50;;
15082;SDS011;7640;53.116;6.878;2022-10-16T11:08:02;11.13;;;2.33;;
15082;SDS011;7640;53.116;6.878;2022-10-16T11:10:40;8.40;;;2.23;;
15082;SDS011;7640;53.116;6.878;2022-10-16T11:13:17;10.20;;;1.90;;
15082;SDS011;7640;53.116;6.878;2022-10-16T11:15:57;6.20;;;2.10;;
15082;SDS011;7640;53.116;6.878;2022-10-16T11:18:30;6.67;;;1.90;;
15082;SDS011;7640;53.116;6.878;2022-10-16T11:21:10;7.03;;;1.60;;
15082;SDS011;7640;53.116;6.878;2022-10-16T11:23:44;8.97;;;2.30;;
15082;SDS011;7640;53.116;6.878;2022-10-16T11:26:20;8.73;;;2.50;;
15082;SDS011;7640;53.116;6.878;2022-10-16T11:28:51;5.40;;;1.93;;
15082;SDS011;7640;53.116;6.878;2022-10-16T11:31:24;10.00;;;2.60;;
15082;SDS011;7640;53.116;6.878;2022-10-16T11:34:01;7.73;;;1.63;;
15082;SDS011;7640;53.116;6.878;2022-10-16T11:36:42;10.40;;;2.20;;
15082;SDS011;7640;53.116;6.878;2022-10-16T11:39:20;7.33;;;2.30;;
15082;SDS011;7640;53.116;6.878;2022-10-16T11:41:53;8.50;;;2.17;;
15082;SDS011;7640;53.116;6.878;2022-10-16T11:44:27;7.90;;;2.03;;
15082;SDS011;7640;53.116;6.878;2022-10-16T11:47:13;8.40;;;2.43;;
15082;SDS011;7640;53.116;6.878;2022-10-16T11:50:13;8.00;;;1.93;;
15082;SDS011;7640;53.116;6.878;2022-10-16T11:52:52;12.40;;;2.47;;
15082;SDS011;7640;53.116;6.878;2022-10-16T11:55:31;8.00;;;2.00;;
15082;SDS011;7640;53.116;6.878;2022-10-16T11:58:12;9.27;;;2.40;;
15082;SDS011;7640;53.116;6.878;2022-10-16T12:00:55;11.43;;;2.00;;
15082;SDS011;7640;53.116;6.878;2022-10-16T12:03:31;8.03;;;2.00;;
15082;SDS011;7640;53.116;6.878;2022-10-16T12:06:14;9.47;;;1.70;;
15082;SDS011;7640;53.116;6.878;2022-10-16T12:08:56;7.77;;;2.40;;
15082;SDS011;7640;53.116;6.878;2022-10-16T12:11:35;8.57;;;1.90;;
15082;SDS011;7640;53.116;6.878;2022-10-16T12:14:07;8.27;;;2.40;;
15082;SDS011;7640;53.116;6.878;2022-10-16T12:17:25;10.00;;;2.00;;
15082;SDS011;7640;53.116;6.878;2022-10-16T12:20:12;9.07;;;2.20;;
15082;SDS011;7640;53.116;6.878;2022-10-16T12:22:50;8.27;;;2.03;;
15082;SDS011;7640;53.116;6.878;2022-10-16T12:25:22;10.87;;;3.43;;
15082;SDS011;7640;53.116;6.878;2022-10-16T12:27:56;8.43;;;2.30;;
15082;SDS011;7640;53.116;6.878;2022-10-16T12:30:29;9.00;;;2.40;;
15082;SDS011;7640;53.116;6.878;2022-10-16T12:33:01;7.00;;;2.30;;
15082;SDS011;7640;53.116;6.878;2022-10-16T12:35:33;6.93;;;2.07;;
15082;SDS011;7640;53.116;6.878;2022-10-16T12:38:15;6.13;;;1.97;;
15082;SDS011;7640;53.116;6.878;2022-10-16T12:40:46;7.33;;;1.90;;
15082;SDS011;7640;53.116;6.878;2022-10-16T12:43:26;7.90;;;2.10;;
15082;SDS011;7640;53.116;6.878;2022-10-16T12:46:05;7.27;;;2.07;;
15082;SDS011;7640;53.116;6.878;2022-10-16T12:48:51;8.10;;;1.97;;
15082;SDS011;7640;53.116;6.878;2022-10-16T12:51:35;7.13;;;1.73;;
15082;SDS011;7640;53.116;6.878;2022-10-16T12:54:04;7.20;;;1.77;;
15082;SDS011;7640;53.116;6.878;2022-10-16T12:56:44;10.10;;;1.80;;
15082;SDS011;7640;53.116;6.878;2022-10-16T12:59:31;7.13;;;1.80;;
15082;SDS011;7640;53.116;6.878;2022-10-16T13:05:40;6.07;;;1.52;;
15082;SDS011;7640;53.116;6.878;2022-10-16T13:08:25;6.00;;;1.88;;
15082;SDS011;7640;53.116;6.878;2022-10-16T13:11:10;6.25;;;1.52;;
15082;SDS011;7640;53.116;6.878;2022-10-16T13:13:51;5.38;;;1.83;;
15082;SDS011;7640;53.116;6.878;2022-10-16T13:16:38;5.40;;;1.63;;
15082;SDS011;7640;53.116;6.878;2022-10-16T13:19:19;8.27;;;1.83;;
15082;SDS011;7640;53.116;6.878;2022-10-16T13:21:58;4.35;;;1.67;;
15082;SDS011;7640;53.116;6.878;2022-10-16T13:24:40;6.93;;;1.80;;
15082;SDS011;7640;53.116;6.878;2022-10-16T13:27:25;5.63;;;1.85;;
15082;SDS011;7640;53.116;6.878;2022-10-16T13:30:09;7.90;;;1.88;;
15082;SDS011;7640;53.116;6.878;2022-10-16T13:32:45;6.20;;;1.83;;
15082;SDS011;7640;53.116;6.878;2022-10-16T13:35:22;7.38;;;2.15;;
15082;SDS011;7640;53.116;6.878;2022-10-16T13:38:02;5.93;;;1.65;;
15082;SDS011;7640;53.116;6.878;2022-10-16T13:40:33;5.18;;;1.65;;
15082;SDS011;7640;53.116;6.878;2022-10-16T13:43:01;6.90;;;2.17;;
15082;SDS011;7640;53.116;6.878;2022-10-16T13:45:29;6.60;;;1.70;;
15082;SDS011;7640;53.116;6.878;2022-10-16T13:48:02;8.82;;;1.63;;
15082;SDS011;7640;53.116;6.878;2022-10-16T13:50:31;8.20;;;2.20;;
15082;SDS011;7640;53.116;6.878;2022-10-16T13:53:03;7.53;;;1.77;;
15082;SDS011;7640;53.116;6.878;2022-10-16T13:55:34;6.87;;;1.57;;
15082;SDS011;7640;53.116;6.878;2022-10-16T13:58:07;5.50;;;1.60;;
15082;SDS011;7640;53.116;6.878;2022-10-16T14:00:39;9.50;;;1.80;;
15082;SDS011;7640;53.116;6.878;2022-10-16T14:03:13;6.80;;;1.60;;
15082;SDS011;7640;53.116;6.878;2022-10-16T14:05:43;6.77;;;1.87;;
15082;SDS011;7640;53.116;6.878;2022-10-16T14:08:16;6.07;;;1.80;;
15082;SDS011;7640;53.116;6.878;2022-10-16T14:10:47;6.60;;;1.70;;
15082;SDS011;7640;53.116;6.878;2022-10-16T14:13:17;6.33;;;1.70;;
15082;SDS011;7640;53.116;6.878;2022-10-16T14:15:49;4.40;;;1.63;;
15082;SDS011;7640;53.116;6.878;2022-10-16T14:18:23;5.37;;;1.40;;
15082;SDS011;7640;53.116;6.878;2022-10-16T14:21:04;5.00;;;1.60;;
15082;SDS011;7640;53.116;6.878;2022-10-16T14:23:35;5.00;;;1.27;;
15082;SDS011;7640;53.116;6.878;2022-10-16T14:26:05;9.50;;;1.67;;
15082;SDS011;7640;53.116;6.878;2022-10-16T14:28:41;5.63;;;1.37;;
15082;SDS011;7640;53.116;6.878;2022-10-16T14:31:21;6.97;;;1.90;;
15082;SDS011;7640;53.116;6.878;2022-10-16T14:33:56;4.60;;;1.60;;
15082;SDS011;7640;53.116;6.878;2022-10-16T14:36:26;9.57;;;1.80;;
15082;SDS011;7640;53.116;6.878;2022-10-16T14:38:59;5.57;;;1.53;;
15082;SDS011;7640;53.116;6.878;2022-10-16T14:41:30;9.07;;;2.00;;
15082;SDS011;7640;53.116;6.878;2022-10-16T14:44:01;9.80;;;2.10;;
15082;SDS011;7640;53.116;6.878;2022-10-16T14:46:32;7.67;;;2.40;;
15082;SDS011;7640;53.116;6.878;2022-10-16T14:49:12;9.30;;;2.47;;
15082;SDS011;7640;53.116;6.878;2022-10-16T14:51:46;5.03;;;1.93;;
15082;SDS011;7640;53.116;6.878;2022-10-16T14:54:15;8.53;;;2.33;;
15082;SDS011;7640;53.116;6.878;2022-10-16T14:56:46;8.03;;;1.97;;
15082;SDS011;7640;53.116;6.878;2022-10-16T14:59:19;7.73;;;2.10;;
15082;SDS011;7640;53.116;6.878;2022-10-16T15:01:53;5.63;;;2.33;;
15082;SDS011;7640;53.116;6.878;2022-10-16T15:04:23;10.23;;;2.20;;
15082;SDS011;7640;53.116;6.878;2022-10-16T15:06:51;10.87;;;2.50;;
15082;SDS011;7640;53.116;6.878;2022-10-16T15:09:19;12.33;;;2.57;;
15082;SDS011;7640;53.116;6.878;2022-10-16T15:11:47;7.70;;;2.10;;
15082;SDS011;7640;53.116;6.878;2022-10-16T15:14:16;8.40;;;1.67;;
15082;SDS011;7640;53.116;6.878;2022-10-16T15:16:44;6.77;;;1.93;;
15082;SDS011;7640;53.116;6.878;2022-10-16T15:19:13;8.30;;;2.10;;
15082;SDS011;7640;53.116;6.878;2022-10-16T15:21:43;6.80;;;2.20;;
15082;SDS011;7640;53.116;6.878;2022-10-16T15:24:12;8.93;;;2.07;;
15082;SDS011;7640;53.116;6.878;2022-10-16T15:26:46;7.40;;;1.80;;
15082;SDS011;7640;53.116;6.878;2022-10-16T15:29:15;11.87;;;2.60;;
15082;SDS011;7640;53.116;6.878;2022-10-16T15:31:43;9.63;;;2.27;;
15082;SDS011;7640;53.116;6.878;2022-10-16T15:34:13;11.53;;;2.40;;
15082;SDS011;7640;53.116;6.878;2022-10-16T15:36:44;9.87;;;2.43;;
15082;SDS011;7640;53.116;6.878;2022-10-16T15:39:13;12.73;;;2.57;;
15082;SDS011;7640;53.116;6.878;2022-10-16T15:41:44;10.97;;;2.97;;
15082;SDS011;7640;53.116;6.878;2022-10-16T15:44:16;7.37;;;2.50;;
15082;SDS011;7640;53.116;6.878;2022-10-16T15:46:44;8.23;;;2.90;;
15082;SDS011;7640;53.116;6.878;2022-10-16T15:49:13;8.17;;;3.00;;
15082;SDS011;7640;53.116;6.878;2022-10-16T15:51:43;9.47;;;2.97;;
15082;SDS011;7640;53.116;6.878;2022-10-16T15:54:13;8.57;;;2.10;;
15082;SDS011;7640;53.116;6.878;2022-10-16T15:56:41;12.80;;;3.57;;
15082;SDS011;7640;53.116;6.878;2022-10-16T15:59:10;10.53;;;2.80;;
15082;SDS011;7640;53.116;6.878;2022-10-16T16:01:38;18.03;;;3.70;;
15082;SDS011;7640;53.116;6.878;2022-10-16T16:04:06;8.17;;;2.37;;
15082;SDS011;7640;53.116;6.878;2022-10-16T16:06:47;9.63;;;2.57;;
15082;SDS011;7640;53.116;6.878;2022-10-16T16:09:15;10.63;;;3.00;;
15082;SDS011;7640;53.116;6.878;2022-10-16T16:11:43;10.53;;;2.87;;
15082;SDS011;7640;53.116;6.878;2022-10-16T16:14:12;9.63;;;2.47;;
15082;SDS011;7640;53.116;6.878;2022-10-16T16:16:41;9.93;;;3.47;;
15082;SDS011;7640;53.116;6.878;2022-10-16T16:19:09;12.57;;;4.60;;
15082;SDS011;7640;53.116;6.878;2022-10-16T16:21:38;10.63;;;5.33;;
15082;SDS011;7640;53.116;6.878;2022-10-16T16:24:07;11.47;;;3.13;;
15082;SDS011;7640;53.116;6.878;2022-10-16T16:26:36;11.80;;;3.97;;
15082;SDS011;7640;53.116;6.878;2022-10-16T16:29:06;9.67;;;3.40;;
15082;SDS011;7640;53.116;6.878;2022-10-16T16:31:36;10.20;;;2.73;;
15082;SDS011;7640;53.116;6.878;2022-10-16T16:34:04;5.93;;;2.83;;
15082;SDS011;7640;53.116;6.878;2022-10-16T16:36:34;11.57;;;3.13;;
15082;SDS011;7640;53.116;6.878;2022-10-16T16:39:02;9.77;;;3.10;;
15082;SDS011;7640;53.116;6.878;2022-10-16T16:41:32;8.23;;;2.87;;
15082;SDS011;7640;53.116;6.878;2022-10-16T16:44:01;10.10;;;2.77;;
15082;SDS011;7640;53.116;6.878;2022-10-16T16:46:31;12.73;;;6.50;;
15082;SDS011;7640;53.116;6.878;2022-10-16T16:49:01;8.83;;;3.60;;
15082;SDS011;7640;53.116;6.878;2022-10-16T16:51:30;7.70;;;2.67;;
15082;SDS011;7640;53.116;6.878;2022-10-16T16:54:05;9.00;;;2.87;;
15082;SDS011;7640;53.116;6.878;2022-10-16T16:56:36;7.60;;;2.83;;
15082;SDS011;7640;53.116;6.878;2022-10-16T16:59:04;9.67;;;4.10;;
15082;SDS011;7640;53.116;6.878;2022-10-16T17:01:32;10.23;;;3.10;;
15082;SDS011;7640;53.116;6.878;2022-10-16T17:04:01;9.60;;;3.10;;
15082;SDS011;7640;53.116;6.878;2022-10-16T17:06:29;8.43;;;3.20;;
15082;SDS011;7640;53.116;6.878;2022-10-16T17:08:57;10.53;;;3.50;;
15082;SDS011;7640;53.116;6.878;2022-10-16T17:11:26;10.17;;;3.63;;
15082;SDS011;7640;53.116;6.878;2022-10-16T17:13:57;7.93;;;3.80;;
15082;SDS011;7640;53.116;6.878;2022-10-16T17:16:27;9.77;;;3.70;;
15082;SDS011;7640;53.116;6.878;2022-10-16T17:19:00;10.17;;;4.77;;
15082;SDS011;7640;53.116;6.878;2022-10-16T17:21:30;11.00;;;5.10;;